sensor_id;sensor_type;location;lat;lon;timestamp;temperature;humidity
21163;DHT22;10739;52.198;20.908;2024-01-10T00:02:19;-8.50;99.90
21163;DHT22;10739;52.198;20.908;2024-01-10T00:04:46;-8.50;99.90
21163;DHT22;10739;52.198;20.908;2024-01-10T00:07:12;-8.50;99.90
21163;DHT22;10739;52.198;20.908;2024-01-10T00:09:39;-8.50;99.90
21163;DHT22;10739;52.198;20.908;2024-01-10T00:12:05;-8.50;99.90
21163;DHT22;10739;52.198;20.908;2024-01-10T00:14:32;-8.50;99.90
21163;DHT22;10739;52.198;20.908;2024-01-10T00:16:59;-8.50;99.90
21163;DHT22;10739;52.198;20.908;2024-01-10T00:19:25;-8.50;99.90
21163;DHT22;10739;52.198;20.908;2024-01-10T00:21:51;-8.50;99.90
21163;DHT22;10739;52.198;20.908;2024-01-10T00:24:17;-8.40;99.90
21163;DHT22;10739;52.198;20.908;2024-01-10T00:26:43;-8.50;99.90
21163;DHT22;10739;52.198;20.908;2024-01-10T00:29:10;-8.50;99.90
21163;DHT22;10739;52.198;20.908;2024-01-10T00:31:36;-8.40;99.90
21163;DHT22;10739;52.198;20.908;2024-01-10T00:34:03;-8.50;99.90
21163;DHT22;10739;52.198;20.908;2024-01-10T00:36:29;-8.50;99.90
21163;DHT22;10739;52.198;20.908;2024-01-10T00:38:55;-8.50;99.90
21163;DHT22;10739;52.198;20.908;2024-01-10T00:41:22;-8.50;99.90
21163;DHT22;10739;52.198;20.908;2024-01-10T00:43:48;-8.50;99.90
21163;DHT22;10739;52.198;20.908;2024-01-10T00:46:14;-8.60;99.90
21163;DHT22;10739;52.198;20.908;2024-01-10T00:48:41;-8.60;99.90
21163;DHT22;10739;52.198;20.908;2024-01-10T00:51:07;-8.60;99.90
21163;DHT22;10739;52.198;20.908;2024-01-10T00:53:35;-8.60;99.90
21163;DHT22;10739;52.198;20.908;2024-01-10T00:56:01;-8.70;99.90
21163;DHT22;10739;52.198;20.908;2024-01-10T00:58:27;-8.70;99.90
21163;DHT22;10739;52.198;20.908;2024-01-10T01:00:54;-8.70;99.90
21163;DHT22;10739;52.198;20.908;2024-01-10T01:03:20;-8.80;99.90
21163;DHT22;10739;52.198;20.908;2024-01-10T01:05:46;-8.70;99.90
21163;DHT22;10739;52.198;20.908;2024-01-10T01:08:12;-8.70;99.90
21163;DHT22;10739;52.198;20.908;2024-01-10T01:10:39;-8.70;99.90
21163;DHT22;10739;52.198;20.908;2024-01-10T01:13:05;-8.70;99.90
21163;DHT22;10739;52.198;20.908;2024-01-10T01:15:32;-8.70;99.90
21163;DHT22;10739;52.198;20.908;2024-01-10T01:17:58;-8.80;99.90
21163;DHT22;10739;52.198;20.908;2024-01-10T01:20:24;-8.80;99.90
21163;DHT22;10739;52.198;20.908;2024-01-10T01:22:50;-8.90;99.90
21163;DHT22;10739;52.198;20.908;2024-01-10T01:25:17;-8.90;99.90
21163;DHT22;10739;52.198;20.908;2024-01-10T01:27:43;-8.90;99.90
21163;DHT22;10739;52.198;20.908;2024-01-10T01:30:10;-8.90;99.90
21163;DHT22;10739;52.198;20.908;2024-01-10T01:32:37;-8.90;99.90
21163;DHT22;10739;52.198;20.908;2024-01-10T01:35:07;-8.90;99.90
21163;DHT22;10739;52.198;20.908;2024-01-10T01:37:33;-8.90;99.90
21163;DHT22;10739;52.198;20.908;2024-01-10T01:40:00;-8.80;99.90
21163;DHT22;10739;52.198;20.908;2024-01-10T01:42:26;-8.90;99.90
21163;DHT22;10739;52.198;20.908;2024-01-10T01:44:52;-8.80;99.90
21163;DHT22;10739;52.198;20.908;2024-01-10T01:47:19;-8.80;99.90
21163;DHT22;10739;52.198;20.908;2024-01-10T01:49:45;-8.80;99.90
21163;DHT22;10739;52.198;20.908;2024-01-10T01:52:12;-8.80;99.90
21163;DHT22;10739;52.198;20.908;2024-01-10T01:54:40;-8.80;99.90
21163;DHT22;10739;52.198;20.908;2024-01-10T01:57:07;-8.80;99.90
21163;DHT22;10739;52.198;20.908;2024-01-10T01:59:34;-8.80;99.90
21163;DHT22;10739;52.198;20.908;2024-01-10T02:02:01;-8.80;99.90
21163;DHT22;10739;52.198;20.908;2024-01-10T02:04:31;-8.70;99.90
21163;DHT22;10739;52.198;20.908;2024-01-10T02:06:58;-8.70;99.90
21163;DHT22;10739;52.198;20.908;2024-01-10T02:09:25;-8.70;99.90
21163;DHT22;10739;52.198;20.908;2024-01-10T02:11:52;-8.70;99.90
21163;DHT22;10739;52.198;20.908;2024-01-10T02:14:19;-8.70;99.90
21163;DHT22;10739;52.198;20.908;2024-01-10T02:16:46;-8.70;99.90
21163;DHT22;10739;52.198;20.908;2024-01-10T02:19:23;-8.80;99.90
21163;DHT22;10739;52.198;20.908;2024-01-10T02:21:50;-8.70;99.90
21163;DHT22;10739;52.198;20.908;2024-01-10T02:24:16;-8.70;99.90
21163;DHT22;10739;52.198;20.908;2024-01-10T02:26:43;-8.70;99.90
21163;DHT22;10739;52.198;20.908;2024-01-10T02:29:09;-8.70;99.90
21163;DHT22;10739;52.198;20.908;2024-01-10T02:31:36;-8.70;99.90
21163;DHT22;10739;52.198;20.908;2024-01-10T02:34:02;-8.70;99.90
21163;DHT22;10739;52.198;20.908;2024-01-10T02:36:29;-8.70;99.90
21163;DHT22;10739;52.198;20.908;2024-01-10T02:38:55;-8.80;99.90
21163;DHT22;10739;52.198;20.908;2024-01-10T02:41:22;-8.80;99.90
21163;DHT22;10739;52.198;20.908;2024-01-10T02:43:48;-8.80;99.90
21163;DHT22;10739;52.198;20.908;2024-01-10T02:46:14;-8.80;99.90
21163;DHT22;10739;52.198;20.908;2024-01-10T02:48:41;-8.90;99.90
21163;DHT22;10739;52.198;20.908;2024-01-10T02:51:07;-8.90;99.90
21163;DHT22;10739;52.198;20.908;2024-01-10T02:53:33;-8.90;99.90
21163;DHT22;10739;52.198;20.908;2024-01-10T02:55:59;-8.90;99.90
21163;DHT22;10739;52.198;20.908;2024-01-10T02:58:26;-9.00;99.90
21163;DHT22;10739;52.198;20.908;2024-01-10T03:00:53;-9.00;99.90
21163;DHT22;10739;52.198;20.908;2024-01-10T03:03:20;-9.00;99.90
21163;DHT22;10739;52.198;20.908;2024-01-10T03:05:46;-9.00;99.90
21163;DHT22;10739;52.198;20.908;2024-01-10T03:08:12;-9.00;99.90
21163;DHT22;10739;52.198;20.908;2024-01-10T03:10:39;-9.10;99.90
21163;DHT22;10739;52.198;20.908;2024-01-10T03:13:05;-9.00;99.90
21163;DHT22;10739;52.198;20.908;2024-01-10T03:15:31;-9.00;99.90
21163;DHT22;10739;52.198;20.908;2024-01-10T03:17:58;-9.00;99.90
21163;DHT22;10739;52.198;20.908;2024-01-10T03:20:24;-9.00;99.90
21163;DHT22;10739;52.198;20.908;2024-01-10T03:22:50;-8.90;99.90
21163;DHT22;10739;52.198;20.908;2024-01-10T03:25:17;-9.00;99.90
21163;DHT22;10739;52.198;20.908;2024-01-10T03:27:43;-8.90;99.90
21163;DHT22;10739;52.198;20.908;2024-01-10T03:30:10;-9.00;99.90
21163;DHT22;10739;52.198;20.908;2024-01-10T03:32:36;-9.00;99.90
21163;DHT22;10739;52.198;20.908;2024-01-10T03:35:03;-9.00;99.90
21163;DHT22;10739;52.198;20.908;2024-01-10T03:37:29;-9.00;99.90
21163;DHT22;10739;52.198;20.908;2024-01-10T03:39:55;-9.00;99.90
21163;DHT22;10739;52.198;20.908;2024-01-10T03:42:22;-9.00;99.90
21163;DHT22;10739;52.198;20.908;2024-01-10T03:44:48;-9.00;99.90
21163;DHT22;10739;52.198;20.908;2024-01-10T03:47:15;-9.10;99.90
21163;DHT22;10739;52.198;20.908;2024-01-10T03:49:41;-9.00;99.90
21163;DHT22;10739;52.198;20.908;2024-01-10T03:52:07;-9.00;99.90
21163;DHT22;10739;52.198;20.908;2024-01-10T03:54:34;-9.00;99.90
21163;DHT22;10739;52.198;20.908;2024-01-10T03:57:00;-9.00;99.90
21163;DHT22;10739;52.198;20.908;2024-01-10T03:59:26;-9.00;99.90
21163;DHT22;10739;52.198;20.908;2024-01-10T04:01:53;-9.00;99.90
21163;DHT22;10739;52.198;20.908;2024-01-10T04:04:19;-9.10;99.90
21163;DHT22;10739;52.198;20.908;2024-01-10T04:06:45;-9.00;99.90
21163;DHT22;10739;52.198;20.908;2024-01-10T04:09:11;-9.10;99.90
21163;DHT22;10739;52.198;20.908;2024-01-10T04:11:38;-9.10;99.90
21163;DHT22;10739;52.198;20.908;2024-01-10T04:14:05;-9.00;99.90
21163;DHT22;10739;52.198;20.908;2024-01-10T04:16:31;-9.10;99.90
21163;DHT22;10739;52.198;20.908;2024-01-10T04:18:58;-9.20;99.90
21163;DHT22;10739;52.198;20.908;2024-01-10T04:21:24;-9.10;99.90
21163;DHT22;10739;52.198;20.908;2024-01-10T04:23:50;-9.10;99.90
21163;DHT22;10739;52.198;20.908;2024-01-10T04:26:18;-9.20;99.90
21163;DHT22;10739;52.198;20.908;2024-01-10T04:28:44;-9.10;99.90
21163;DHT22;10739;52.198;20.908;2024-01-10T04:31:10;-9.10;99.90
21163;DHT22;10739;52.198;20.908;2024-01-10T04:33:36;-9.10;99.90
21163;DHT22;10739;52.198;20.908;2024-01-10T04:36:03;-8.80;99.90
21163;DHT22;10739;52.198;20.908;2024-01-10T04:38:30;-9.10;99.90
21163;DHT22;10739;52.198;20.908;2024-01-10T04:40:56;-9.10;99.90
21163;DHT22;10739;52.198;20.908;2024-01-10T04:43:22;-9.10;99.90
21163;DHT22;10739;52.198;20.908;2024-01-10T04:45:48;-9.10;99.90
21163;DHT22;10739;52.198;20.908;2024-01-10T04:48:15;-9.10;99.90
21163;DHT22;10739;52.198;20.908;2024-01-10T04:50:41;-9.10;99.90
21163;DHT22;10739;52.198;20.908;2024-01-10T04:53:08;-9.10;99.90
21163;DHT22;10739;52.198;20.908;2024-01-10T04:55:34;-9.10;99.90
21163;DHT22;10739;52.198;20.908;2024-01-10T04:58:00;-9.10;99.90
21163;DHT22;10739;52.198;20.908;2024-01-10T05:00:27;-9.10;99.90
21163;DHT22;10739;52.198;20.908;2024-01-10T05:02:54;-9.10;99.90
21163;DHT22;10739;52.198;20.908;2024-01-10T05:05:20;-9.10;99.90
21163;DHT22;10739;52.198;20.908;2024-01-10T05:07:50;-9.20;99.90
21163;DHT22;10739;52.198;20.908;2024-01-10T05:10:18;-9.20;99.90
21163;DHT22;10739;52.198;20.908;2024-01-10T05:12:45;-9.10;99.90
21163;DHT22;10739;52.198;20.908;2024-01-10T05:15:11;-9.20;99.90
21163;DHT22;10739;52.198;20.908;2024-01-10T05:17:37;-9.20;99.90
21163;DHT22;10739;52.198;20.908;2024-01-10T05:20:04;-9.20;99.90
21163;DHT22;10739;52.198;20.908;2024-01-10T05:22:31;-9.20;99.90
21163;DHT22;10739;52.198;20.908;2024-01-10T05:24:58;-9.20;99.90
21163;DHT22;10739;52.198;20.908;2024-01-10T05:27:24;-9.20;99.90
21163;DHT22;10739;52.198;20.908;2024-01-10T05:29:50;-9.20;99.90
21163;DHT22;10739;52.198;20.908;2024-01-10T05:32:17;-9.20;99.90
21163;DHT22;10739;52.198;20.908;2024-01-10T05:34:44;-9.20;99.90
21163;DHT22;10739;52.198;20.908;2024-01-10T05:37:10;-9.30;99.90
21163;DHT22;10739;52.198;20.908;2024-01-10T05:39:37;-9.30;99.90
21163;DHT22;10739;52.198;20.908;2024-01-10T05:42:03;-9.30;99.90
21163;DHT22;10739;52.198;20.908;2024-01-10T05:44:30;-9.30;99.90
21163;DHT22;10739;52.198;20.908;2024-01-10T05:46:57;-9.30;99.90
21163;DHT22;10739;52.198;20.908;2024-01-10T05:49:25;-9.30;99.90
21163;DHT22;10739;52.198;20.908;2024-01-10T05:51:52;-9.30;99.90
21163;DHT22;10739;52.198;20.908;2024-01-10T05:54:18;-9.30;99.90
21163;DHT22;10739;52.198;20.908;2024-01-10T05:56:44;-9.30;99.90
21163;DHT22;10739;52.198;20.908;2024-01-10T05:59:11;-9.30;99.90
21163;DHT22;10739;52.198;20.908;2024-01-10T06:01:37;-9.30;99.90
21163;DHT22;10739;52.198;20.908;2024-01-10T06:04:04;-9.30;99.90
21163;DHT22;10739;52.198;20.908;2024-01-10T06:06:31;-9.30;99.90
21163;DHT22;10739;52.198;20.908;2024-01-10T06:08:58;-9.40;99.90
21163;DHT22;10739;52.198;20.908;2024-01-10T06:11:24;-9.40;99.90
21163;DHT22;10739;52.198;20.908;2024-01-10T06:13:51;-9.40;99.90
21163;DHT22;10739;52.198;20.908;2024-01-10T06:16:17;-9.40;99.90
21163;DHT22;10739;52.198;20.908;2024-01-10T06:18:44;-9.40;99.90
21163;DHT22;10739;52.198;20.908;2024-01-10T06:21:10;-9.40;99.90
21163;DHT22;10739;52.198;20.908;2024-01-10T06:23:39;-9.40;99.90
21163;DHT22;10739;52.198;20.908;2024-01-10T06:26:06;-9.40;99.90
21163;DHT22;10739;52.198;20.908;2024-01-10T06:28:33;-9.40;99.90
21163;DHT22;10739;52.198;20.908;2024-01-10T06:30:59;-9.30;99.90
21163;DHT22;10739;52.198;20.908;2024-01-10T06:33:25;-9.30;99.90
21163;DHT22;10739;52.198;20.908;2024-01-10T06:35:51;-9.30;99.90
21163;DHT22;10739;52.198;20.908;2024-01-10T06:38:18;-9.30;99.90
21163;DHT22;10739;52.198;20.908;2024-01-10T06:40:46;-9.30;99.90
21163;DHT22;10739;52.198;20.908;2024-01-10T06:43:14;-9.30;99.90
21163;DHT22;10739;52.198;20.908;2024-01-10T06:45:40;-9.30;99.90
21163;DHT22;10739;52.198;20.908;2024-01-10T06:48:08;-9.30;99.90
21163;DHT22;10739;52.198;20.908;2024-01-10T06:50:35;-9.30;99.90
21163;DHT22;10739;52.198;20.908;2024-01-10T06:53:02;-9.30;99.90
21163;DHT22;10739;52.198;20.908;2024-01-10T06:55:28;-9.30;99.90
21163;DHT22;10739;52.198;20.908;2024-01-10T06:57:55;-9.40;99.90
21163;DHT22;10739;52.198;20.908;2024-01-10T07:00:22;-9.40;99.90
21163;DHT22;10739;52.198;20.908;2024-01-10T07:02:49;-9.40;99.90
21163;DHT22;10739;52.198;20.908;2024-01-10T07:05:15;-9.40;99.90
21163;DHT22;10739;52.198;20.908;2024-01-10T07:07:42;-9.40;99.90
21163;DHT22;10739;52.198;20.908;2024-01-10T07:10:09;-9.40;99.90
21163;DHT22;10739;52.198;20.908;2024-01-10T07:12:36;-9.40;99.90
21163;DHT22;10739;52.198;20.908;2024-01-10T07:15:03;-9.30;99.90
21163;DHT22;10739;52.198;20.908;2024-01-10T07:17:29;-9.40;99.90
21163;DHT22;10739;52.198;20.908;2024-01-10T07:19:59;-9.40;99.90
21163;DHT22;10739;52.198;20.908;2024-01-10T07:22:28;-9.30;99.90
21163;DHT22;10739;52.198;20.908;2024-01-10T07:24:55;-9.30;99.90
21163;DHT22;10739;52.198;20.908;2024-01-10T07:27:22;-9.30;99.90
21163;DHT22;10739;52.198;20.908;2024-01-10T07:29:49;-9.00;99.90
21163;DHT22;10739;52.198;20.908;2024-01-10T07:32:15;-9.30;99.90
21163;DHT22;10739;52.198;20.908;2024-01-10T07:34:41;-9.30;99.90
21163;DHT22;10739;52.198;20.908;2024-01-10T07:37:07;-9.30;99.90
21163;DHT22;10739;52.198;20.908;2024-01-10T07:39:35;-9.20;99.90
21163;DHT22;10739;52.198;20.908;2024-01-10T07:42:01;-9.20;99.90
21163;DHT22;10739;52.198;20.908;2024-01-10T07:44:28;-9.20;99.90
21163;DHT22;10739;52.198;20.908;2024-01-10T07:46:54;-10.10;99.90
21163;DHT22;10739;52.198;20.908;2024-01-10T07:49:21;-9.10;99.90
21163;DHT22;10739;52.198;20.908;2024-01-10T07:51:50;-9.10;99.90
21163;DHT22;10739;52.198;20.908;2024-01-10T07:54:16;-9.00;99.90
21163;DHT22;10739;52.198;20.908;2024-01-10T07:56:43;-9.00;99.90
21163;DHT22;10739;52.198;20.908;2024-01-10T07:59:09;-9.00;99.90
21163;DHT22;10739;52.198;20.908;2024-01-10T08:01:36;-9.00;99.90
21163;DHT22;10739;52.198;20.908;2024-01-10T08:04:03;-8.90;99.90
21163;DHT22;10739;52.198;20.908;2024-01-10T08:06:33;-9.00;99.90
21163;DHT22;10739;52.198;20.908;2024-01-10T08:09:00;-8.80;99.90
21163;DHT22;10739;52.198;20.908;2024-01-10T08:11:30;-8.70;99.90
21163;DHT22;10739;52.198;20.908;2024-01-10T08:13:56;-8.70;99.90
21163;DHT22;10739;52.198;20.908;2024-01-10T08:16:22;-8.70;99.90
21163;DHT22;10739;52.198;20.908;2024-01-10T08:18:49;-8.60;99.90
21163;DHT22;10739;52.198;20.908;2024-01-10T08:21:15;-8.60;99.90
21163;DHT22;10739;52.198;20.908;2024-01-10T08:23:41;-8.60;99.90
21163;DHT22;10739;52.198;20.908;2024-01-10T08:26:08;-8.50;99.90
21163;DHT22;10739;52.198;20.908;2024-01-10T08:28:34;-8.40;99.90
21163;DHT22;10739;52.198;20.908;2024-01-10T08:31:00;-8.40;99.90
21163;DHT22;10739;52.198;20.908;2024-01-10T08:33:27;-8.30;99.90
21163;DHT22;10739;52.198;20.908;2024-01-10T08:35:53;-8.30;99.90
21163;DHT22;10739;52.198;20.908;2024-01-10T08:38:19;-8.30;99.90
21163;DHT22;10739;52.198;20.908;2024-01-10T08:40:46;-8.30;99.90
21163;DHT22;10739;52.198;20.908;2024-01-10T08:43:13;-8.20;99.90
21163;DHT22;10739;52.198;20.908;2024-01-10T08:45:39;-8.10;99.90
21163;DHT22;10739;52.198;20.908;2024-01-10T08:48:06;-8.10;99.90
21163;DHT22;10739;52.198;20.908;2024-01-10T08:50:36;-8.10;99.90
21163;DHT22;10739;52.198;20.908;2024-01-10T08:53:02;-8.00;99.90
21163;DHT22;10739;52.198;20.908;2024-01-10T08:55:34;-8.00;99.90
21163;DHT22;10739;52.198;20.908;2024-01-10T08:58:03;-8.00;99.90
21163;DHT22;10739;52.198;20.908;2024-01-10T09:00:30;-8.00;99.90
21163;DHT22;10739;52.198;20.908;2024-01-10T09:02:57;-7.90;99.90
21163;DHT22;10739;52.198;20.908;2024-01-10T09:05:23;-7.80;99.90
21163;DHT22;10739;52.198;20.908;2024-01-10T09:07:50;-7.70;99.90
21163;DHT22;10739;52.198;20.908;2024-01-10T09:10:16;-7.60;99.90
21163;DHT22;10739;52.198;20.908;2024-01-10T09:12:42;-7.60;99.90
21163;DHT22;10739;52.198;20.908;2024-01-10T09:15:12;-7.50;99.90
21163;DHT22;10739;52.198;20.908;2024-01-10T09:17:41;-7.40;99.90
21163;DHT22;10739;52.198;20.908;2024-01-10T09:20:08;-7.30;99.90
21163;DHT22;10739;52.198;20.908;2024-01-10T09:22:36;-7.20;99.90
21163;DHT22;10739;52.198;20.908;2024-01-10T09:25:06;-7.00;99.90
21163;DHT22;10739;52.198;20.908;2024-01-10T09:27:33;-6.90;99.90
21163;DHT22;10739;52.198;20.908;2024-01-10T09:30:00;-6.60;99.90
21163;DHT22;10739;52.198;20.908;2024-01-10T09:32:28;-6.30;99.90
21163;DHT22;10739;52.198;20.908;2024-01-10T09:34:55;-6.60;99.90
21163;DHT22;10739;52.198;20.908;2024-01-10T09:37:22;-6.70;99.90
21163;DHT22;10739;52.198;20.908;2024-01-10T09:39:49;-7.00;99.90
21163;DHT22;10739;52.198;20.908;2024-01-10T09:42:16;-7.00;99.90
21163;DHT22;10739;52.198;20.908;2024-01-10T09:44:42;-6.90;99.90
21163;DHT22;10739;52.198;20.908;2024-01-10T09:47:09;-6.80;99.90
21163;DHT22;10739;52.198;20.908;2024-01-10T09:49:35;-6.80;99.90
21163;DHT22;10739;52.198;20.908;2024-01-10T09:52:04;-6.70;99.90
21163;DHT22;10739;52.198;20.908;2024-01-10T09:54:34;-6.70;99.90
21163;DHT22;10739;52.198;20.908;2024-01-10T09:57:03;-6.70;99.90
21163;DHT22;10739;52.198;20.908;2024-01-10T09:59:29;-6.70;99.90
21163;DHT22;10739;52.198;20.908;2024-01-10T10:01:57;-6.60;99.90
21163;DHT22;10739;52.198;20.908;2024-01-10T10:04:27;-6.50;99.90
21163;DHT22;10739;52.198;20.908;2024-01-10T10:07:01;-6.40;99.90
21163;DHT22;10739;52.198;20.908;2024-01-10T10:09:28;-6.30;99.90
21163;DHT22;10739;52.198;20.908;2024-01-10T10:11:58;-6.30;99.90
21163;DHT22;10739;52.198;20.908;2024-01-10T10:14:26;-6.30;99.90
21163;DHT22;10739;52.198;20.908;2024-01-10T10:16:54;-6.30;99.90
21163;DHT22;10739;52.198;20.908;2024-01-10T10:19:25;-6.50;99.90
21163;DHT22;10739;52.198;20.908;2024-01-10T10:21:51;-6.40;99.90
21163;DHT22;10739;52.198;20.908;2024-01-10T10:24:17;-6.30;99.90
21163;DHT22;10739;52.198;20.908;2024-01-10T10:26:44;-6.20;99.90
21163;DHT22;10739;52.198;20.908;2024-01-10T10:29:10;-6.20;99.90
21163;DHT22;10739;52.198;20.908;2024-01-10T10:31:36;-6.10;99.90
21163;DHT22;10739;52.198;20.908;2024-01-10T10:34:03;-6.10;99.90
21163;DHT22;10739;52.198;20.908;2024-01-10T10:36:32;-6.00;99.90
21163;DHT22;10739;52.198;20.908;2024-01-10T10:39:06;-5.90;99.90
21163;DHT22;10739;52.198;20.908;2024-01-10T10:41:39;-5.90;99.90
21163;DHT22;10739;52.198;20.908;2024-01-10T10:44:09;-5.90;99.90
21163;DHT22;10739;52.198;20.908;2024-01-10T10:46:37;-5.90;99.90
21163;DHT22;10739;52.198;20.908;2024-01-10T10:49:11;-6.00;99.90
21163;DHT22;10739;52.198;20.908;2024-01-10T10:51:40;-6.00;99.90
21163;DHT22;10739;52.198;20.908;2024-01-10T10:54:07;-6.00;99.90
21163;DHT22;10739;52.198;20.908;2024-01-10T10:56:36;-5.90;99.90
21163;DHT22;10739;52.198;20.908;2024-01-10T10:59:05;-5.80;99.90
21163;DHT22;10739;52.198;20.908;2024-01-10T11:01:32;-5.70;99.90
21163;DHT22;10739;52.198;20.908;2024-01-10T11:04:00;-5.50;99.90
21163;DHT22;10739;52.198;20.908;2024-01-10T11:06:27;-5.50;99.90
21163;DHT22;10739;52.198;20.908;2024-01-10T11:09:05;-5.50;99.90
21163;DHT22;10739;52.198;20.908;2024-01-10T11:11:56;-5.60;99.90
21163;DHT22;10739;52.198;20.908;2024-01-10T11:22:04;-5.10;99.90
21163;DHT22;10739;52.198;20.908;2024-01-10T11:24:42;-5.10;99.90
21163;DHT22;10739;52.198;20.908;2024-01-10T11:27:13;-5.10;99.90
21163;DHT22;10739;52.198;20.908;2024-01-10T11:29:42;-5.20;99.90
21163;DHT22;10739;52.198;20.908;2024-01-10T11:32:18;-5.20;99.90
21163;DHT22;10739;52.198;20.908;2024-01-10T11:34:57;-5.20;99.90
21163;DHT22;10739;52.198;20.908;2024-01-10T11:37:29;-5.20;99.90
21163;DHT22;10739;52.198;20.908;2024-01-10T11:40:08;-5.20;99.90
21163;DHT22;10739;52.198;20.908;2024-01-10T11:42:47;-5.20;99.90
21163;DHT22;10739;52.198;20.908;2024-01-10T11:48:01;-5.20;99.90
21163;DHT22;10739;52.198;20.908;2024-01-10T11:50:29;-5.10;99.90
21163;DHT22;10739;52.198;20.908;2024-01-10T11:52:57;-5.10;99.90
21163;DHT22;10739;52.198;20.908;2024-01-10T11:55:51;-5.10;99.90
21163;DHT22;10739;52.198;20.908;2024-01-10T11:58:18;-5.00;99.90
21163;DHT22;10739;52.198;20.908;2024-01-10T12:00:46;-5.00;99.90
21163;DHT22;10739;52.198;20.908;2024-01-10T12:03:14;-4.90;99.90
21163;DHT22;10739;52.198;20.908;2024-01-10T12:05:40;-4.80;99.90
21163;DHT22;10739;52.198;20.908;2024-01-10T12:08:10;-4.80;99.90
21163;DHT22;10739;52.198;20.908;2024-01-10T12:10:36;-4.80;99.90
21163;DHT22;10739;52.198;20.908;2024-01-10T12:13:03;-4.80;99.90
21163;DHT22;10739;52.198;20.908;2024-01-10T12:15:29;-4.80;99.90
21163;DHT22;10739;52.198;20.908;2024-01-10T12:17:56;-4.80;99.90
21163;DHT22;10739;52.198;20.908;2024-01-10T12:20:22;-4.70;99.90
21163;DHT22;10739;52.198;20.908;2024-01-10T12:22:49;-4.80;99.90
21163;DHT22;10739;52.198;20.908;2024-01-10T12:25:15;-4.80;99.90
21163;DHT22;10739;52.198;20.908;2024-01-10T12:27:41;-4.80;99.90
21163;DHT22;10739;52.198;20.908;2024-01-10T12:30:08;-4.80;99.90
21163;DHT22;10739;52.198;20.908;2024-01-10T12:32:34;-4.80;99.90
21163;DHT22;10739;52.198;20.908;2024-01-10T12:35:04;-4.70;99.90
21163;DHT22;10739;52.198;20.908;2024-01-10T12:37:32;-4.70;99.90
21163;DHT22;10739;52.198;20.908;2024-01-10T12:39:58;-4.70;99.90
21163;DHT22;10739;52.198;20.908;2024-01-10T12:42:24;-4.60;99.90
21163;DHT22;10739;52.198;20.908;2024-01-10T12:44:51;-4.70;99.90
21163;DHT22;10739;52.198;20.908;2024-01-10T12:47:20;-4.70;99.90
21163;DHT22;10739;52.198;20.908;2024-01-10T12:49:48;-4.60;99.90
21163;DHT22;10739;52.198;20.908;2024-01-10T12:52:15;-4.70;99.90
21163;DHT22;10739;52.198;20.908;2024-01-10T12:54:42;-4.70;99.90
21163;DHT22;10739;52.198;20.908;2024-01-10T12:57:09;-4.60;99.90
21163;DHT22;10739;52.198;20.908;2024-01-10T12:59:35;-4.70;99.90
21163;DHT22;10739;52.198;20.908;2024-01-10T13:02:02;-4.70;99.90
21163;DHT22;10739;52.198;20.908;2024-01-10T13:04:28;-4.70;99.90
21163;DHT22;10739;52.198;20.908;2024-01-10T13:06:54;-4.60;99.90
21163;DHT22;10739;52.198;20.908;2024-01-10T13:09:21;-4.60;99.90
21163;DHT22;10739;52.198;20.908;2024-01-10T13:12:24;-4.60;99.90
21163;DHT22;10739;52.198;20.908;2024-01-10T13:14:51;-4.50;99.90
21163;DHT22;10739;52.198;20.908;2024-01-10T13:17:17;-4.50;99.90
21163;DHT22;10739;52.198;20.908;2024-01-10T13:19:43;-4.50;99.90
21163;DHT22;10739;52.198;20.908;2024-01-10T13:22:17;-4.50;99.90
21163;DHT22;10739;52.198;20.908;2024-01-10T13:24:46;-4.50;99.90
21163;DHT22;10739;52.198;20.908;2024-01-10T13:27:12;-4.50;99.90
21163;DHT22;10739;52.198;20.908;2024-01-10T13:29:39;-4.60;99.90
21163;DHT22;10739;52.198;20.908;2024-01-10T13:32:06;-4.60;99.90
21163;DHT22;10739;52.198;20.908;2024-01-10T13:34:33;-4.50;99.90
21163;DHT22;10739;52.198;20.908;2024-01-10T13:36:59;-4.50;99.90
21163;DHT22;10739;52.198;20.908;2024-01-10T13:39:27;-4.50;99.90
21163;DHT22;10739;52.198;20.908;2024-01-10T13:41:54;-4.50;99.90
21163;DHT22;10739;52.198;20.908;2024-01-10T13:44:20;-4.50;99.90
21163;DHT22;10739;52.198;20.908;2024-01-10T13:46:47;-4.60;99.90
21163;DHT22;10739;52.198;20.908;2024-01-10T13:49:16;-4.60;99.90
21163;DHT22;10739;52.198;20.908;2024-01-10T13:51:42;-4.50;99.90
21163;DHT22;10739;52.198;20.908;2024-01-10T13:54:10;-4.60;99.90
21163;DHT22;10739;52.198;20.908;2024-01-10T13:56:36;-4.60;99.90
21163;DHT22;10739;52.198;20.908;2024-01-10T13:59:05;-4.60;99.90
21163;DHT22;10739;52.198;20.908;2024-01-10T14:01:31;-4.70;99.90
21163;DHT22;10739;52.198;20.908;2024-01-10T14:03:57;-4.70;99.90
21163;DHT22;10739;52.198;20.908;2024-01-10T14:06:24;-4.70;99.90
21163;DHT22;10739;52.198;20.908;2024-01-10T14:08:50;-4.70;99.90
21163;DHT22;10739;52.198;20.908;2024-01-10T14:11:22;-4.70;99.90
21163;DHT22;10739;52.198;20.908;2024-01-10T14:13:48;-4.70;99.90
21163;DHT22;10739;52.198;20.908;2024-01-10T14:16:14;-4.80;99.90
21163;DHT22;10739;52.198;20.908;2024-01-10T14:18:41;-4.80;99.90
21163;DHT22;10739;52.198;20.908;2024-01-10T14:21:07;-4.80;99.90
21163;DHT22;10739;52.198;20.908;2024-01-10T14:23:33;-4.90;99.90
21163;DHT22;10739;52.198;20.908;2024-01-10T14:26:00;-4.90;99.90
21163;DHT22;10739;52.198;20.908;2024-01-10T14:28:26;-4.90;99.90
21163;DHT22;10739;52.198;20.908;2024-01-10T14:30:52;-4.90;99.90
21163;DHT22;10739;52.198;20.908;2024-01-10T14:33:19;-4.90;99.90
21163;DHT22;10739;52.198;20.908;2024-01-10T14:35:45;-4.90;99.90
21163;DHT22;10739;52.198;20.908;2024-01-10T14:38:12;-5.00;99.90
21163;DHT22;10739;52.198;20.908;2024-01-10T14:40:38;-5.00;99.90
21163;DHT22;10739;52.198;20.908;2024-01-10T14:43:04;-5.00;99.90
21163;DHT22;10739;52.198;20.908;2024-01-10T14:45:30;-5.00;99.90
21163;DHT22;10739;52.198;20.908;2024-01-10T14:47:57;-5.10;99.90
21163;DHT22;10739;52.198;20.908;2024-01-10T14:50:23;-5.10;99.90
21163;DHT22;10739;52.198;20.908;2024-01-10T14:52:50;-5.10;99.90
21163;DHT22;10739;52.198;20.908;2024-01-10T14:55:16;-5.20;99.90
21163;DHT22;10739;52.198;20.908;2024-01-10T14:57:42;-5.20;99.90
21163;DHT22;10739;52.198;20.908;2024-01-10T15:00:09;-5.20;99.90
21163;DHT22;10739;52.198;20.908;2024-01-10T15:02:36;-5.20;99.90
21163;DHT22;10739;52.198;20.908;2024-01-10T15:05:03;-5.30;99.90
21163;DHT22;10739;52.198;20.908;2024-01-10T15:07:30;-5.30;99.90
21163;DHT22;10739;52.198;20.908;2024-01-10T15:09:57;-5.30;99.90
21163;DHT22;10739;52.198;20.908;2024-01-10T15:12:24;-5.40;99.90
21163;DHT22;10739;52.198;20.908;2024-01-10T15:14:51;-5.40;99.90
21163;DHT22;10739;52.198;20.908;2024-01-10T15:17:17;-5.40;99.90
21163;DHT22;10739;52.198;20.908;2024-01-10T15:19:43;-5.40;99.90
21163;DHT22;10739;52.198;20.908;2024-01-10T15:22:11;-5.50;99.90
21163;DHT22;10739;52.198;20.908;2024-01-10T15:24:37;-5.50;99.90
21163;DHT22;10739;52.198;20.908;2024-01-10T15:27:05;-5.40;99.90